Time,TemperatureF,DewpointF,PressureIn,WindDirection,WindDirectionDegrees,WindSpeedMPH,WindSpeedGustMPH,Humidity,HourlyPrecipIn,Conditions,Clouds,dailyrainin,SolarRadiationWatts/m^2,SoftwareType,DateUTC
2013-08-10 00:43:00,61.0,41.0,-100.00,SE,127,1.0,6.0,48,0.00,,,0.00,0.000000,,2013-08-10 07:43:00,
2013-08-10 00:52:00,61.0,41.0,-100.00,SE,127,1.0,6.0,48,0.00,,,0.00,0.000000,,2013-08-10 07:52:00,
2013-08-10 01:21:00,61.0,40.0,-100.00,SE,126,1.0,6.0,46,0.00,,,0.00,0.000000,,2013-08-10 08:21:00,
2013-08-10 01:32:00,61.0,40.0,-100.00,SE,126,1.0,6.0,46,0.00,,,0.00,0.000000,,2013-08-10 08:32:00,
2013-08-10 01:43:00,61.0,40.0,-100.00,SE,126,1.0,6.0,46,0.00,,,0.00,0.000000,,2013-08-10 08:43:00,
2013-08-10 01:52:00,61.0,40.0,-100.00,SE,126,1.0,6.0,46,0.00,,,0.00,0.000000,,2013-08-10 08:52:00,
2013-08-10 02:21:00,59.0,39.0,-100.00,SE,136,2.0,7.0,47,0.00,,,0.00,0.000000,,2013-08-10 09:21:00,
2013-08-10 02:32:00,59.0,39.0,-100.00,SE,136,2.0,7.0,47,0.00,,,0.00,0.000000,,2013-08-10 09:32:00,
2013-08-10 02:43:00,59.0,39.0,-100.00,SE,136,2.0,7.0,47,0.00,,,0.00,0.000000,,2013-08-10 09:43:00,
2013-08-10 02:52:00,59.0,39.0,-100.00,SE,136,2.0,7.0,47,0.00,,,0.00,0.000000,,2013-08-10 09:52:00,
2013-08-10 03:33:00,58.0,41.0,-100.00,SE,131,1.0,7.0,53,0.00,,,0.00,0.000000,,2013-08-10 10:33:00,
2013-08-10 03:43:00,58.0,41.0,-100.00,SE,131,1.0,7.0,53,0.00,,,0.00,0.000000,,2013-08-10 10:43:00,
2013-08-10 03:52:00,58.0,41.0,-100.00,SE,131,1.0,7.0,53,0.00,,,0.00,0.000000,,2013-08-10 10:52:00,
2013-08-10 07:22:00,56.0,39.0,-100.00,ESE,121,0.0,5.0,53,-99.99,,,0.00,10.000000,,2013-08-10 14:22:00,
2013-08-10 07:32:00,56.0,39.0,-100.00,ESE,121,0.0,5.0,53,-99.99,,,0.00,10.000000,,2013-08-10 14:32:00,
2013-08-10 07:42:00,56.0,39.0,-100.00,ESE,121,0.0,5.0,53,-99.99,,,0.00,10.000000,,2013-08-10 14:42:00,
2013-08-10 07:53:00,56.0,39.0,-100.00,ESE,121,0.0,5.0,53,-99.99,,,0.00,10.000000,,2013-08-10 14:53:00,
2013-08-10 08:22:00,62.0,41.0,-100.00,SW,219,0.0,6.0,46,0.00,,,0.00,45.000000,,2013-08-10 15:22:00,
2013-08-10 08:33:00,62.0,41.0,-100.00,SW,219,0.0,6.0,46,0.00,,,0.00,45.000000,,2013-08-10 15:33:00,
2013-08-10 08:43:00,62.0,41.0,-100.00,SW,219,0.0,6.0,46,0.00,,,0.00,45.000000,,2013-08-10 15:43:00,
2013-08-10 08:52:00,62.0,41.0,-100.00,SW,219,0.0,6.0,46,0.00,,,0.00,45.000000,,2013-08-10 15:52:00,
2013-08-10 09:43:00,72.0,42.0,-100.00,WNW,291,0.0,4.0,34,0.00,,,0.00,426.000000,,2013-08-10 16:43:00,
2013-08-10 10:22:00,77.0,42.0,-100.00,West,281,4.0,6.0,29,0.00,,,0.00,734.000000,,2013-08-10 17:22:00,
2013-08-10 10:33:00,77.0,42.0,-100.00,West,281,4.0,6.0,29,0.00,,,0.00,734.000000,,2013-08-10 17:33:00,
2013-08-10 10:43:00,77.0,42.0,-100.00,West,281,4.0,6.0,29,0.00,,,0.00,734.000000,,2013-08-10 17:43:00,
2013-08-10 10:52:00,77.0,42.0,-100.00,West,281,4.0,6.0,29,0.00,,,0.00,734.000000,,2013-08-10 17:52:00,
2013-08-10 11:23:00,77.0,42.0,-100.00,WSW,254,5.0,9.0,29,0.00,,,0.00,933.000000,,2013-08-10 18:23:00,
2013-08-10 11:32:00,77.0,42.0,-100.00,WSW,254,5.0,9.0,29,0.00,,,0.00,933.000000,,2013-08-10 18:32:00,
2013-08-10 11:43:00,77.0,42.0,-100.00,WSW,254,5.0,9.0,29,0.00,,,0.00,933.000000,,2013-08-10 18:43:00,
2013-08-10 11:52:00,77.0,42.0,-100.00,WSW,254,5.0,9.0,29,0.00,,,0.00,933.000000,,2013-08-10 18:52:00,
2013-08-10 12:44:00,79.0,46.0,-100.00,West,278,4.0,10.0,31,0.00,,,0.00,1075.000000,,2013-08-10 19:44:00,
2013-08-10 12:53:00,79.0,46.0,-100.00,West,278,4.0,10.0,31,0.00,,,0.00,1075.000000,,2013-08-10 19:53:00,
2013-08-10 13:22:00,79.0,44.0,-100.00,WNW,286,4.0,12.0,29,0.00,,,0.00,1141.000000,,2013-08-10 20:22:00,
2013-08-10 13:33:00,79.0,44.0,-100.00,WNW,286,4.0,12.0,29,0.00,,,0.00,1141.000000,,2013-08-10 20:33:00,
2013-08-10 13:43:00,79.0,44.0,-100.00,WNW,286,4.0,12.0,29,0.00,,,0.00,1141.000000,,2013-08-10 20:43:00,
2013-08-10 13:53:00,79.0,44.0,-100.00,WNW,286,4.0,12.0,29,0.00,,,0.00,1141.000000,,2013-08-10 20:53:00,
2013-08-10 14:32:00,81.0,45.0,-100.00,WNW,287,4.0,11.0,28,0.00,,,0.00,1142.000000,,2013-08-10 21:32:00,
2013-08-10 14:42:00,81.0,45.0,-100.00,WNW,287,4.0,11.0,28,0.00,,,0.00,1142.000000,,2013-08-10 21:42:00,
2013-08-10 14:52:00,81.0,45.0,-100.00,WNW,287,4.0,11.0,28,0.00,,,0.00,1142.000000,,2013-08-10 21:52:00,
2013-08-10 15:43:00,82.0,45.0,-100.00,East,99,4.0,11.0,27,0.00,,,0.00,1084.000000,,2013-08-10 22:43:00,
2013-08-10 15:52:00,82.0,45.0,-100.00,East,99,4.0,11.0,27,0.00,,,0.00,1084.000000,,2013-08-10 22:52:00,
2013-08-10 16:22:00,82.0,42.0,-100.00,West,277,5.0,10.0,24,0.00,,,0.00,956.000000,,2013-08-10 23:22:00,
2013-08-10 16:32:00,82.0,42.0,-100.00,West,277,5.0,10.0,24,0.00,,,0.00,956.000000,,2013-08-10 23:32:00,
2013-08-10 16:43:00,82.0,42.0,-100.00,West,277,5.0,10.0,24,0.00,,,0.00,956.000000,,2013-08-10 23:43:00,
2013-08-10 16:53:00,82.0,42.0,-100.00,West,277,5.0,10.0,24,0.00,,,0.00,956.000000,,2013-08-10 23:53:00,
2013-08-10 17:22:00,81.0,42.0,-100.00,NNW,335,5.0,11.0,25,0.00,,,0.00,765.000000,,2013-08-11 00:22:00,
2013-08-10 17:32:00,81.0,42.0,-100.00,NNW,335,5.0,11.0,25,0.00,,,0.00,765.000000,,2013-08-11 00:32:00,
2013-08-10 17:42:00,81.0,42.0,-100.00,NNW,335,5.0,11.0,25,0.00,,,0.00,765.000000,,2013-08-11 00:42:00,
2013-08-10 17:52:00,81.0,42.0,-100.00,NNW,335,5.0,11.0,25,0.00,,,0.00,765.000000,,2013-08-11 00:52:00,
2013-08-10 18:32:00,81.0,45.0,-100.00,WNW,282,4.0,13.0,28,0.00,,,0.00,534.000000,,2013-08-11 01:32:00,
2013-08-10 18:43:00,81.0,45.0,-100.00,WNW,282,4.0,13.0,28,0.00,,,0.00,534.000000,,2013-08-11 01:43:00,
2013-08-10 18:53:00,81.0,45.0,-100.00,WNW,282,4.0,13.0,28,0.00,,,0.00,534.000000,,2013-08-11 01:53:00,
2013-08-10 19:32:00,73.0,43.0,-100.00,WNW,290,2.0,11.0,34,0.00,,,0.00,80.000000,,2013-08-11 02:32:00,
2013-08-10 19:43:00,73.0,43.0,-100.00,WNW,290,2.0,11.0,34,0.00,,,0.00,80.000000,,2013-08-11 02:43:00,
2013-08-10 19:54:00,73.0,43.0,-100.00,WNW,290,2.0,11.0,34,0.00,,,0.00,80.000000,,2013-08-11 02:54:00,
2013-08-10 20:25:00,69.0,43.0,-100.00,WSW,257,0.0,9.0,39,0.00,,,0.00,23.000000,,2013-08-11 03:25:00,
2013-08-10 20:34:00,69.0,43.0,-100.00,WSW,257,0.0,9.0,39,0.00,,,0.00,23.000000,,2013-08-11 03:34:00,
2013-08-10 20:43:00,69.0,43.0,-100.00,WSW,257,0.0,9.0,39,0.00,,,0.00,23.000000,,2013-08-11 03:43:00,
2013-08-10 21:22:00,65.0,44.0,-100.00,ESE,123,1.0,5.0,46,0.00,,,0.00,0.000000,,2013-08-11 04:22:00,
2013-08-10 21:32:00,65.0,44.0,-100.00,ESE,123,1.0,5.0,46,0.00,,,0.00,0.000000,,2013-08-11 04:32:00,
2013-08-10 21:42:00,65.0,44.0,-100.00,ESE,123,1.0,5.0,46,0.00,,,0.00,0.000000,,2013-08-11 04:42:00,
2013-08-10 21:53:00,65.0,44.0,-100.00,ESE,123,1.0,5.0,46,0.00,,,0.00,0.000000,,2013-08-11 04:53:00,
2013-08-10 22:23:00,63.0,43.0,-100.00,ESE,122,0.0,8.0,48,0.00,,,0.00,0.000000,,2013-08-11 05:23:00,
2013-08-10 22:34:00,63.0,43.0,-100.00,ESE,122,0.0,8.0,48,0.00,,,0.00,0.000000,,2013-08-11 05:34:00,
2013-08-10 22:44:00,63.0,43.0,-100.00,ESE,122,0.0,8.0,48,0.00,,,0.00,0.000000,,2013-08-11 05:44:00,
2013-08-10 23:34:00,61.0,41.0,-100.00,ESE,113,1.0,7.0,48,0.00,,,0.00,0.000000,,2013-08-11 06:34:00,
2013-08-10 23:53:00,61.0,41.0,-100.00,ESE,113,1.0,7.0,48,0.00,,,0.00,0.000000,,2013-08-11 06:53:00,